Pagrindinis puslapis
METAR-TAF:

METAR-TAF

Oro uostai :

El Palmar

Santa Ana, Salvadoras

platuma: 13-59N, ilguma: 089-34W, Aukštis: 725 m

Dabartinis oras

Ataskaita buvo paskelbta 11 valandos ir 55 minutes, ne 23:50 UTC
Vėjas 3 kt iš Vakarų
Temperatūra 28°C
Drėgmė 66%
Slėgis 1016 hPa
Matomumas 10 km arba daugiau
nėra debesų žemiau 1500 m ir nėra kamuolinių lietaus debesų

METAR: MSSA 162350Z 26003KT CAVOK 28/21 Q1016 A3000 RMK DSTN CB NE

Laikas: 05:45 (11:45 UTC)


TAF: trūkstamas

Orai ataskaitas ir orų prognozės (METAR, TAF).

turimą stotys yra geltonos ir raudonos taškus žemėlapyje.

Perkelti pele per norėdami pamatyti stoties vardą.

Tada spustelėkite, norėdami matyti oro stebėjimo ir prognozės.

Norėdami pakeisti žemėlapį: spustelėkite ant žalios mygtukų su juodo kryžiaus žemyn,; žalią mygtuką su brūkšneliu, jei norite nutolinti; arba žalių rodyklių gretimoms žemėlapius.


METAR-TAF: